sensor_id;sensor_type;location;lat;lon;timestamp;P1;durP1;ratioP1;P2;durP2;ratioP2
45887;SDS011;31595;51.418;7.572;2024-03-02T00:01:31;2.95;;;2.13;;
45887;SDS011;31595;51.418;7.572;2024-03-02T00:03:58;4.25;;;2.20;;
45887;SDS011;31595;51.418;7.572;2024-03-02T00:06:25;3.33;;;2.58;;
45887;SDS011;31595;51.418;7.572;2024-03-02T00:08:53;2.92;;;2.10;;
45887;SDS011;31595;51.418;7.572;2024-03-02T00:11:23;2.60;;;2.20;;
45887;SDS011;31595;51.418;7.572;2024-03-02T00:13:52;2.70;;;2.10;;
45887;SDS011;31595;51.418;7.572;2024-03-02T00:16:18;3.53;;;2.30;;
45887;SDS011;31595;51.418;7.572;2024-03-02T00:18:45;3.08;;;2.10;;
45887;SDS011;31595;51.418;7.572;2024-03-02T00:21:12;3.05;;;1.90;;
45887;SDS011;31595;51.418;7.572;2024-03-02T00:23:40;3.13;;;2.10;;
45887;SDS011;31595;51.418;7.572;2024-03-02T00:26:08;3.17;;;2.20;;
45887;SDS011;31595;51.418;7.572;2024-03-02T00:28:38;2.78;;;2.00;;
45887;SDS011;31595;51.418;7.572;2024-03-02T00:31:09;3.50;;;2.33;;
45887;SDS011;31595;51.418;7.572;2024-03-02T00:33:38;3.03;;;2.17;;
45887;SDS011;31595;51.418;7.572;2024-03-02T00:36:05;2.83;;;2.00;;
45887;SDS011;31595;51.418;7.572;2024-03-02T00:38:33;3.40;;;1.98;;
45887;SDS011;31595;51.418;7.572;2024-03-02T00:41:04;2.85;;;2.00;;
45887;SDS011;31595;51.418;7.572;2024-03-02T00:43:43;3.92;;;2.25;;
45887;SDS011;31595;51.418;7.572;2024-03-02T00:46:13;3.33;;;2.10;;
45887;SDS011;31595;51.418;7.572;2024-03-02T00:48:47;4.18;;;1.83;;
45887;SDS011;31595;51.418;7.572;2024-03-02T00:51:14;2.20;;;1.70;;
45887;SDS011;31595;51.418;7.572;2024-03-02T00:53:41;3.63;;;1.75;;
45887;SDS011;31595;51.418;7.572;2024-03-02T00:56:09;3.63;;;2.10;;
45887;SDS011;31595;51.418;7.572;2024-03-02T00:58:35;4.32;;;1.80;;
45887;SDS011;31595;51.418;7.572;2024-03-02T01:01:04;3.55;;;1.70;;
45887;SDS011;31595;51.418;7.572;2024-03-02T01:03:31;2.80;;;1.73;;
45887;SDS011;31595;51.418;7.572;2024-03-02T01:05:58;3.58;;;1.60;;
45887;SDS011;31595;51.418;7.572;2024-03-02T01:08:25;2.42;;;1.50;;
45887;SDS011;31595;51.418;7.572;2024-03-02T01:10:51;2.33;;;1.40;;
45887;SDS011;31595;51.418;7.572;2024-03-02T01:13:18;3.22;;;1.55;;
45887;SDS011;31595;51.418;7.572;2024-03-02T01:15:45;2.25;;;1.35;;
45887;SDS011;31595;51.418;7.572;2024-03-02T01:18:13;4.60;;;1.90;;
45887;SDS011;31595;51.418;7.572;2024-03-02T01:20:40;3.08;;;1.60;;
45887;SDS011;31595;51.418;7.572;2024-03-02T01:23:07;2.10;;;1.40;;
45887;SDS011;31595;51.418;7.572;2024-03-02T01:25:35;3.60;;;1.65;;
45887;SDS011;31595;51.418;7.572;2024-03-02T01:28:02;2.60;;;1.60;;
45887;SDS011;31595;51.418;7.572;2024-03-02T01:30:29;2.63;;;1.58;;
45887;SDS011;31595;51.418;7.572;2024-03-02T01:32:56;2.47;;;1.50;;
45887;SDS011;31595;51.418;7.572;2024-03-02T01:35:25;2.40;;;1.00;;
45887;SDS011;31595;51.418;7.572;2024-03-02T01:37:53;2.85;;;1.30;;
45887;SDS011;31595;51.418;7.572;2024-03-02T01:40:20;2.00;;;1.25;;
45887;SDS011;31595;51.418;7.572;2024-03-02T01:42:47;3.63;;;1.40;;
45887;SDS011;31595;51.418;7.572;2024-03-02T01:45:12;2.50;;;1.20;;
45887;SDS011;31595;51.418;7.572;2024-03-02T01:47:39;2.75;;;1.30;;
45887;SDS011;31595;51.418;7.572;2024-03-02T01:50:06;2.50;;;1.02;;
45887;SDS011;31595;51.418;7.572;2024-03-02T01:52:35;3.22;;;1.30;;
45887;SDS011;31595;51.418;7.572;2024-03-02T01:55:02;2.00;;;1.17;;
45887;SDS011;31595;51.418;7.572;2024-03-02T01:57:30;2.30;;;1.20;;
45887;SDS011;31595;51.418;7.572;2024-03-02T01:59:57;2.03;;;1.13;;
45887;SDS011;31595;51.418;7.572;2024-03-02T02:02:24;2.47;;;1.20;;
45887;SDS011;31595;51.418;7.572;2024-03-02T02:04:51;2.67;;;1.20;;
45887;SDS011;31595;51.418;7.572;2024-03-02T02:07:18;1.77;;;1.15;;
45887;SDS011;31595;51.418;7.572;2024-03-02T02:09:46;3.72;;;1.40;;
45887;SDS011;31595;51.418;7.572;2024-03-02T02:12:13;2.17;;;1.10;;
45887;SDS011;31595;51.418;7.572;2024-03-02T02:14:46;3.00;;;1.10;;
45887;SDS011;31595;51.418;7.572;2024-03-02T02:17:13;3.00;;;1.00;;
45887;SDS011;31595;51.418;7.572;2024-03-02T02:19:40;2.67;;;1.27;;
45887;SDS011;31595;51.418;7.572;2024-03-02T02:22:08;3.63;;;1.23;;
45887;SDS011;31595;51.418;7.572;2024-03-02T02:24:35;1.50;;;1.00;;
45887;SDS011;31595;51.418;7.572;2024-03-02T02:27:02;2.65;;;1.30;;
45887;SDS011;31595;51.418;7.572;2024-03-02T02:29:29;1.75;;;1.02;;
45887;SDS011;31595;51.418;7.572;2024-03-02T02:31:55;2.33;;;1.10;;
45887;SDS011;31595;51.418;7.572;2024-03-02T02:34:22;2.28;;;1.00;;
45887;SDS011;31595;51.418;7.572;2024-03-02T02:36:49;2.65;;;1.23;;
45887;SDS011;31595;51.418;7.572;2024-03-02T02:39:18;3.70;;;1.30;;
45887;SDS011;31595;51.418;7.572;2024-03-02T02:41:45;2.63;;;1.10;;
45887;SDS011;31595;51.418;7.572;2024-03-02T02:44:12;1.58;;;0.98;;
45887;SDS011;31595;51.418;7.572;2024-03-02T02:46:39;4.60;;;1.33;;
45887;SDS011;31595;51.418;7.572;2024-03-02T02:49:06;2.78;;;1.13;;
45887;SDS011;31595;51.418;7.572;2024-03-02T02:51:33;1.85;;;1.15;;
45887;SDS011;31595;51.418;7.572;2024-03-02T02:54:00;3.83;;;1.50;;
45887;SDS011;31595;51.418;7.572;2024-03-02T02:56:28;2.38;;;1.15;;
45887;SDS011;31595;51.418;7.572;2024-03-02T02:58:55;3.53;;;1.35;;
45887;SDS011;31595;51.418;7.572;2024-03-02T03:01:21;4.13;;;1.50;;
45887;SDS011;31595;51.418;7.572;2024-03-02T03:03:48;1.63;;;1.02;;
45887;SDS011;31595;51.418;7.572;2024-03-02T03:06:15;2.35;;;1.48;;
45887;SDS011;31595;51.418;7.572;2024-03-02T03:08:42;2.42;;;1.23;;
45887;SDS011;31595;51.418;7.572;2024-03-02T03:11:09;3.72;;;1.38;;
45887;SDS011;31595;51.418;7.572;2024-03-02T03:13:37;2.30;;;1.20;;
45887;SDS011;31595;51.418;7.572;2024-03-02T03:16:04;2.70;;;1.15;;
45887;SDS011;31595;51.418;7.572;2024-03-02T03:18:31;3.25;;;1.27;;
45887;SDS011;31595;51.418;7.572;2024-03-02T03:20:58;2.17;;;1.20;;
45887;SDS011;31595;51.418;7.572;2024-03-02T03:23:24;2.25;;;1.20;;
45887;SDS011;31595;51.418;7.572;2024-03-02T03:25:52;3.55;;;1.17;;
45887;SDS011;31595;51.418;7.572;2024-03-02T03:28:19;2.38;;;1.27;;
45887;SDS011;31595;51.418;7.572;2024-03-02T03:30:47;2.53;;;1.20;;
45887;SDS011;31595;51.418;7.572;2024-03-02T03:33:14;3.17;;;1.60;;
45887;SDS011;31595;51.418;7.572;2024-03-02T03:35:40;2.00;;;1.20;;
45887;SDS011;31595;51.418;7.572;2024-03-02T03:38:07;2.90;;;1.10;;
45887;SDS011;31595;51.418;7.572;2024-03-02T03:40:34;2.40;;;1.38;;
45887;SDS011;31595;51.418;7.572;2024-03-02T03:43:01;2.80;;;1.45;;
45887;SDS011;31595;51.418;7.572;2024-03-02T03:45:28;2.67;;;1.30;;
45887;SDS011;31595;51.418;7.572;2024-03-02T03:47:57;1.80;;;1.20;;
45887;SDS011;31595;51.418;7.572;2024-03-02T03:50:24;2.50;;;1.17;;
45887;SDS011;31595;51.418;7.572;2024-03-02T03:52:50;3.75;;;1.40;;
45887;SDS011;31595;51.418;7.572;2024-03-02T03:55:17;2.75;;;1.30;;
45887;SDS011;31595;51.418;7.572;2024-03-02T03:57:44;3.75;;;1.50;;
45887;SDS011;31595;51.418;7.572;2024-03-02T04:00:11;2.83;;;1.40;;
45887;SDS011;31595;51.418;7.572;2024-03-02T04:02:38;2.40;;;1.40;;
45887;SDS011;31595;51.418;7.572;2024-03-02T04:05:07;3.13;;;1.50;;
45887;SDS011;31595;51.418;7.572;2024-03-02T04:07:36;2.92;;;1.42;;
45887;SDS011;31595;51.418;7.572;2024-03-02T04:10:08;2.28;;;1.40;;
45887;SDS011;31595;51.418;7.572;2024-03-02T04:12:35;3.30;;;1.42;;
45887;SDS011;31595;51.418;7.572;2024-03-02T04:15:03;3.17;;;1.67;;
45887;SDS011;31595;51.418;7.572;2024-03-02T04:17:31;4.30;;;1.77;;
45887;SDS011;31595;51.418;7.572;2024-03-02T04:19:59;2.72;;;1.50;;
45887;SDS011;31595;51.418;7.572;2024-03-02T04:22:27;4.20;;;1.70;;
45887;SDS011;31595;51.418;7.572;2024-03-02T04:24:54;4.50;;;1.70;;
45887;SDS011;31595;51.418;7.572;2024-03-02T04:27:21;5.13;;;1.88;;
45887;SDS011;31595;51.418;7.572;2024-03-02T04:29:48;2.25;;;1.50;;
45887;SDS011;31595;51.418;7.572;2024-03-02T04:32:15;2.97;;;1.83;;
45887;SDS011;31595;51.418;7.572;2024-03-02T04:34:41;2.95;;;1.70;;
45887;SDS011;31595;51.418;7.572;2024-03-02T04:37:09;3.67;;;1.65;;
45887;SDS011;31595;51.418;7.572;2024-03-02T04:39:37;2.97;;;1.88;;
45887;SDS011;31595;51.418;7.572;2024-03-02T04:42:04;3.75;;;1.80;;
45887;SDS011;31595;51.418;7.572;2024-03-02T04:44:31;4.18;;;1.90;;
45887;SDS011;31595;51.418;7.572;2024-03-02T04:46:58;3.05;;;1.52;;
45887;SDS011;31595;51.418;7.572;2024-03-02T04:49:24;4.20;;;2.28;;
45887;SDS011;31595;51.418;7.572;2024-03-02T04:51:51;3.05;;;2.00;;
45887;SDS011;31595;51.418;7.572;2024-03-02T04:54:18;3.03;;;1.80;;
45887;SDS011;31595;51.418;7.572;2024-03-02T04:56:46;3.08;;;1.73;;
45887;SDS011;31595;51.418;7.572;2024-03-02T04:59:15;2.42;;;1.67;;
45887;SDS011;31595;51.418;7.572;2024-03-02T05:01:42;3.40;;;1.70;;
45887;SDS011;31595;51.418;7.572;2024-03-02T05:04:09;3.53;;;1.60;;
45887;SDS011;31595;51.418;7.572;2024-03-02T05:06:37;4.70;;;2.47;;
45887;SDS011;31595;51.418;7.572;2024-03-02T05:09:04;3.30;;;1.75;;
45887;SDS011;31595;51.418;7.572;2024-03-02T05:11:31;3.33;;;1.90;;
45887;SDS011;31595;51.418;7.572;2024-03-02T05:14:29;3.92;;;1.75;;
45887;SDS011;31595;51.418;7.572;2024-03-02T05:16:56;3.75;;;2.00;;
45887;SDS011;31595;51.418;7.572;2024-03-02T05:19:23;4.40;;;1.90;;
45887;SDS011;31595;51.418;7.572;2024-03-02T05:21:50;3.30;;;2.17;;
45887;SDS011;31595;51.418;7.572;2024-03-02T05:24:17;3.70;;;2.00;;
45887;SDS011;31595;51.418;7.572;2024-03-02T05:26:44;3.47;;;1.80;;
45887;SDS011;31595;51.418;7.572;2024-03-02T05:29:11;3.97;;;1.90;;
45887;SDS011;31595;51.418;7.572;2024-03-02T05:31:38;4.60;;;2.20;;
45887;SDS011;31595;51.418;7.572;2024-03-02T05:34:05;4.47;;;2.17;;
45887;SDS011;31595;51.418;7.572;2024-03-02T05:36:32;4.82;;;2.20;;
45887;SDS011;31595;51.418;7.572;2024-03-02T05:38:58;3.58;;;2.05;;
45887;SDS011;31595;51.418;7.572;2024-03-02T05:41:25;3.63;;;2.00;;
45887;SDS011;31595;51.418;7.572;2024-03-02T05:43:52;4.38;;;2.22;;
45887;SDS011;31595;51.418;7.572;2024-03-02T05:46:19;3.03;;;2.10;;
45887;SDS011;31595;51.418;7.572;2024-03-02T05:48:47;3.33;;;1.95;;
45887;SDS011;31595;51.418;7.572;2024-03-02T05:51:14;3.50;;;2.58;;
45887;SDS011;31595;51.418;7.572;2024-03-02T05:53:40;4.20;;;2.40;;
45887;SDS011;31595;51.418;7.572;2024-03-02T05:56:07;4.50;;;2.35;;
45887;SDS011;31595;51.418;7.572;2024-03-02T05:58:34;4.70;;;2.40;;
45887;SDS011;31595;51.418;7.572;2024-03-02T06:01:15;4.25;;;2.55;;
45887;SDS011;31595;51.418;7.572;2024-03-02T06:03:42;4.03;;;2.28;;
45887;SDS011;31595;51.418;7.572;2024-03-02T06:06:10;4.63;;;2.50;;
45887;SDS011;31595;51.418;7.572;2024-03-02T06:08:37;5.82;;;3.00;;
45887;SDS011;31595;51.418;7.572;2024-03-02T06:11:04;3.10;;;2.53;;
45887;SDS011;31595;51.418;7.572;2024-03-02T06:13:31;3.38;;;2.28;;
45887;SDS011;31595;51.418;7.572;2024-03-02T06:15:58;4.85;;;2.42;;
45887;SDS011;31595;51.418;7.572;2024-03-02T06:18:25;3.78;;;2.42;;
45887;SDS011;31595;51.418;7.572;2024-03-02T06:20:52;4.43;;;2.50;;
45887;SDS011;31595;51.418;7.572;2024-03-02T06:23:20;3.88;;;2.30;;
45887;SDS011;31595;51.418;7.572;2024-03-02T06:25:47;4.68;;;2.50;;
45887;SDS011;31595;51.418;7.572;2024-03-02T06:28:14;3.80;;;2.05;;
45887;SDS011;31595;51.418;7.572;2024-03-02T06:30:41;4.85;;;2.60;;
45887;SDS011;31595;51.418;7.572;2024-03-02T06:33:08;3.42;;;2.20;;
45887;SDS011;31595;51.418;7.572;2024-03-02T06:35:35;5.00;;;2.45;;
45887;SDS011;31595;51.418;7.572;2024-03-02T06:38:02;4.18;;;2.47;;
45887;SDS011;31595;51.418;7.572;2024-03-02T06:40:30;4.43;;;2.50;;
45887;SDS011;31595;51.418;7.572;2024-03-02T06:42:57;3.35;;;2.42;;
45887;SDS011;31595;51.418;7.572;2024-03-02T06:45:23;4.65;;;2.58;;
45887;SDS011;31595;51.418;7.572;2024-03-02T06:47:50;3.65;;;2.40;;
45887;SDS011;31595;51.418;7.572;2024-03-02T06:50:17;5.18;;;2.97;;
45887;SDS011;31595;51.418;7.572;2024-03-02T06:52:44;3.90;;;2.33;;
45887;SDS011;31595;51.418;7.572;2024-03-02T06:55:11;4.05;;;2.33;;
45887;SDS011;31595;51.418;7.572;2024-03-02T06:57:40;3.13;;;2.28;;
45887;SDS011;31595;51.418;7.572;2024-03-02T07:00:07;4.00;;;2.38;;
45887;SDS011;31595;51.418;7.572;2024-03-02T07:02:34;3.20;;;2.10;;
45887;SDS011;31595;51.418;7.572;2024-03-02T07:05:01;3.90;;;2.20;;
45887;SDS011;31595;51.418;7.572;2024-03-02T07:07:28;5.82;;;2.53;;
45887;SDS011;31595;51.418;7.572;2024-03-02T07:09:56;3.70;;;2.30;;
45887;SDS011;31595;51.418;7.572;2024-03-02T07:12:22;3.13;;;2.20;;
45887;SDS011;31595;51.418;7.572;2024-03-02T07:14:50;4.40;;;2.53;;
45887;SDS011;31595;51.418;7.572;2024-03-02T07:17:33;4.13;;;2.40;;
45887;SDS011;31595;51.418;7.572;2024-03-02T07:20:00;3.70;;;2.00;;
45887;SDS011;31595;51.418;7.572;2024-03-02T07:22:27;5.28;;;2.50;;
45887;SDS011;31595;51.418;7.572;2024-03-02T07:24:54;4.10;;;2.20;;
45887;SDS011;31595;51.418;7.572;2024-03-02T07:27:21;3.70;;;2.25;;
45887;SDS011;31595;51.418;7.572;2024-03-02T07:29:48;3.92;;;2.60;;
45887;SDS011;31595;51.418;7.572;2024-03-02T07:32:16;4.53;;;3.20;;
45887;SDS011;31595;51.418;7.572;2024-03-02T07:34:42;4.88;;;3.15;;
45887;SDS011;31595;51.418;7.572;2024-03-02T07:37:09;5.13;;;3.13;;
45887;SDS011;31595;51.418;7.572;2024-03-02T07:39:36;5.35;;;2.67;;
45887;SDS011;31595;51.418;7.572;2024-03-02T07:42:03;3.45;;;2.60;;
45887;SDS011;31595;51.418;7.572;2024-03-02T07:44:31;4.60;;;2.75;;
45887;SDS011;31595;51.418;7.572;2024-03-02T07:46:58;4.00;;;2.75;;
45887;SDS011;31595;51.418;7.572;2024-03-02T07:49:26;4.32;;;2.55;;
45887;SDS011;31595;51.418;7.572;2024-03-02T07:51:53;4.00;;;2.70;;
45887;SDS011;31595;51.418;7.572;2024-03-02T07:54:20;4.65;;;2.70;;
45887;SDS011;31595;51.418;7.572;2024-03-02T07:56:49;3.60;;;2.95;;
45887;SDS011;31595;51.418;7.572;2024-03-02T07:59:16;4.35;;;2.80;;
45887;SDS011;31595;51.418;7.572;2024-03-02T08:01:43;3.78;;;2.75;;
45887;SDS011;31595;51.418;7.572;2024-03-02T08:04:10;4.95;;;2.80;;
45887;SDS011;31595;51.418;7.572;2024-03-02T08:06:38;3.65;;;2.75;;
45887;SDS011;31595;51.418;7.572;2024-03-02T08:09:05;3.28;;;2.47;;
45887;SDS011;31595;51.418;7.572;2024-03-02T08:11:35;3.83;;;2.67;;
45887;SDS011;31595;51.418;7.572;2024-03-02T08:14:02;3.80;;;2.75;;
45887;SDS011;31595;51.418;7.572;2024-03-02T08:16:29;3.78;;;2.33;;
45887;SDS011;31595;51.418;7.572;2024-03-02T08:18:56;3.85;;;2.67;;
45887;SDS011;31595;51.418;7.572;2024-03-02T08:21:23;3.22;;;2.50;;
45887;SDS011;31595;51.418;7.572;2024-03-02T08:23:51;4.18;;;2.83;;
45887;SDS011;31595;51.418;7.572;2024-03-02T08:29:05;4.18;;;2.50;;
45887;SDS011;31595;51.418;7.572;2024-03-02T08:31:34;4.72;;;3.13;;
45887;SDS011;31595;51.418;7.572;2024-03-02T08:34:01;3.55;;;2.35;;
45887;SDS011;31595;51.418;7.572;2024-03-02T08:36:28;4.03;;;2.35;;
45887;SDS011;31595;51.418;7.572;2024-03-02T08:38:56;2.97;;;2.10;;
45887;SDS011;31595;51.418;7.572;2024-03-02T08:41:23;3.30;;;2.20;;
45887;SDS011;31595;51.418;7.572;2024-03-02T08:43:49;3.90;;;2.03;;
45887;SDS011;31595;51.418;7.572;2024-03-02T08:46:16;3.70;;;2.60;;
45887;SDS011;31595;51.418;7.572;2024-03-02T08:48:43;3.05;;;2.10;;
45887;SDS011;31595;51.418;7.572;2024-03-02T08:51:10;3.67;;;2.33;;
45887;SDS011;31595;51.418;7.572;2024-03-02T08:53:37;4.78;;;2.70;;
45887;SDS011;31595;51.418;7.572;2024-03-02T08:56:05;4.13;;;2.40;;
45887;SDS011;31595;51.418;7.572;2024-03-02T08:58:32;3.78;;;2.30;;
45887;SDS011;31595;51.418;7.572;2024-03-02T09:00:59;3.85;;;2.20;;
45887;SDS011;31595;51.418;7.572;2024-03-02T09:03:26;4.05;;;1.92;;
45887;SDS011;31595;51.418;7.572;2024-03-02T09:05:53;2.65;;;1.60;;
45887;SDS011;31595;51.418;7.572;2024-03-02T09:08:20;3.03;;;1.60;;
45887;SDS011;31595;51.418;7.572;2024-03-02T09:10:47;2.78;;;1.50;;
45887;SDS011;31595;51.418;7.572;2024-03-02T09:13:15;3.10;;;1.70;;
45887;SDS011;31595;51.418;7.572;2024-03-02T09:15:42;2.67;;;1.60;;
45887;SDS011;31595;51.418;7.572;2024-03-02T09:18:09;2.47;;;1.52;;
45887;SDS011;31595;51.418;7.572;2024-03-02T09:20:36;2.42;;;1.40;;
45887;SDS011;31595;51.418;7.572;2024-03-02T09:23:03;3.30;;;1.52;;
45887;SDS011;31595;51.418;7.572;2024-03-02T09:25:30;2.28;;;1.63;;
45887;SDS011;31595;51.418;7.572;2024-03-02T09:27:57;2.22;;;1.40;;
45887;SDS011;31595;51.418;7.572;2024-03-02T09:30:25;1.90;;;1.42;;
45887;SDS011;31595;51.418;7.572;2024-03-02T09:32:52;1.95;;;1.33;;
45887;SDS011;31595;51.418;7.572;2024-03-02T09:35:19;1.60;;;1.00;;
45887;SDS011;31595;51.418;7.572;2024-03-02T09:37:46;2.08;;;1.10;;
45887;SDS011;31595;51.418;7.572;2024-03-02T09:40:13;2.10;;;1.10;;
45887;SDS011;31595;51.418;7.572;2024-03-02T09:42:40;2.20;;;1.25;;
45887;SDS011;31595;51.418;7.572;2024-03-02T09:45:07;1.85;;;1.20;;
45887;SDS011;31595;51.418;7.572;2024-03-02T09:47:35;2.00;;;1.08;;
45887;SDS011;31595;51.418;7.572;2024-03-02T09:50:02;1.90;;;1.00;;
45887;SDS011;31595;51.418;7.572;2024-03-02T09:52:29;2.75;;;1.17;;
45887;SDS011;31595;51.418;7.572;2024-03-02T09:54:57;1.50;;;1.08;;
45887;SDS011;31595;51.418;7.572;2024-03-02T09:57:24;2.58;;;1.20;;
45887;SDS011;31595;51.418;7.572;2024-03-02T09:59:51;1.70;;;1.00;;
45887;SDS011;31595;51.418;7.572;2024-03-02T10:02:18;2.33;;;0.90;;
45887;SDS011;31595;51.418;7.572;2024-03-02T10:04:47;1.70;;;1.10;;
45887;SDS011;31595;51.418;7.572;2024-03-02T10:07:15;1.55;;;0.80;;
45887;SDS011;31595;51.418;7.572;2024-03-02T10:09:43;1.60;;;0.90;;
45887;SDS011;31595;51.418;7.572;2024-03-02T10:12:11;1.95;;;0.90;;
45887;SDS011;31595;51.418;7.572;2024-03-02T10:14:38;1.80;;;1.00;;
45887;SDS011;31595;51.418;7.572;2024-03-02T10:17:06;1.88;;;1.00;;
45887;SDS011;31595;51.418;7.572;2024-03-02T10:19:33;2.33;;;1.10;;
45887;SDS011;31595;51.418;7.572;2024-03-02T10:22:02;2.13;;;1.00;;
45887;SDS011;31595;51.418;7.572;2024-03-02T10:24:34;1.40;;;0.82;;
45887;SDS011;31595;51.418;7.572;2024-03-02T10:27:01;2.85;;;1.20;;
45887;SDS011;31595;51.418;7.572;2024-03-02T10:29:29;1.88;;;1.00;;
45887;SDS011;31595;51.418;7.572;2024-03-02T10:31:56;2.35;;;1.00;;
45887;SDS011;31595;51.418;7.572;2024-03-02T10:34:24;1.47;;;0.87;;
45887;SDS011;31595;51.418;7.572;2024-03-02T10:36:51;1.95;;;1.00;;
45887;SDS011;31595;51.418;7.572;2024-03-02T10:39:19;1.50;;;0.93;;
45887;SDS011;31595;51.418;7.572;2024-03-02T10:41:46;1.70;;;1.10;;
45887;SDS011;31595;51.418;7.572;2024-03-02T10:46:42;1.90;;;1.00;;
45887;SDS011;31595;51.418;7.572;2024-03-02T10:49:09;1.65;;;0.90;;
45887;SDS011;31595;51.418;7.572;2024-03-02T10:51:36;1.60;;;1.00;;
45887;SDS011;31595;51.418;7.572;2024-03-02T10:54:04;3.03;;;1.00;;
45887;SDS011;31595;51.418;7.572;2024-03-02T10:56:33;2.03;;;1.00;;
45887;SDS011;31595;51.418;7.572;2024-03-02T10:59:02;2.70;;;0.90;;
45887;SDS011;31595;51.418;7.572;2024-03-02T11:01:29;2.25;;;1.20;;
45887;SDS011;31595;51.418;7.572;2024-03-02T11:03:56;3.25;;;1.05;;
45887;SDS011;31595;51.418;7.572;2024-03-02T11:06:23;2.00;;;0.98;;
45887;SDS011;31595;51.418;7.572;2024-03-02T11:08:52;1.40;;;0.82;;
45887;SDS011;31595;51.418;7.572;2024-03-02T11:11:26;2.35;;;0.90;;
45887;SDS011;31595;51.418;7.572;2024-03-02T11:13:56;2.53;;;1.00;;
45887;SDS011;31595;51.418;7.572;2024-03-02T11:16:27;1.48;;;0.80;;
45887;SDS011;31595;51.418;7.572;2024-03-02T11:18:58;2.08;;;1.00;;
45887;SDS011;31595;51.418;7.572;2024-03-02T11:21:25;1.30;;;0.70;;
45887;SDS011;31595;51.418;7.572;2024-03-02T11:23:52;1.70;;;1.00;;
45887;SDS011;31595;51.418;7.572;2024-03-02T11:26:21;1.42;;;0.75;;
45887;SDS011;31595;51.418;7.572;2024-03-02T11:28:48;1.98;;;0.75;;
45887;SDS011;31595;51.418;7.572;2024-03-02T11:31:16;1.20;;;0.70;;
45887;SDS011;31595;51.418;7.572;2024-03-02T11:33:44;2.22;;;0.95;;
45887;SDS011;31595;51.418;7.572;2024-03-02T11:36:11;1.30;;;0.75;;
45887;SDS011;31595;51.418;7.572;2024-03-02T11:38:37;1.77;;;0.77;;
45887;SDS011;31595;51.418;7.572;2024-03-02T11:41:06;2.78;;;0.80;;
45887;SDS011;31595;51.418;7.572;2024-03-02T11:43:36;1.98;;;0.90;;
45887;SDS011;31595;51.418;7.572;2024-03-02T11:46:04;2.60;;;0.60;;
45887;SDS011;31595;51.418;7.572;2024-03-02T11:48:34;1.27;;;0.70;;
45887;SDS011;31595;51.418;7.572;2024-03-02T11:51:01;1.27;;;0.70;;
45887;SDS011;31595;51.418;7.572;2024-03-02T11:53:28;1.27;;;0.70;;
45887;SDS011;31595;51.418;7.572;2024-03-02T11:55:55;0.93;;;0.52;;
45887;SDS011;31595;51.418;7.572;2024-03-02T11:58:22;1.65;;;0.80;;
45887;SDS011;31595;51.418;7.572;2024-03-02T12:00:52;1.50;;;0.65;;
45887;SDS011;31595;51.418;7.572;2024-03-02T12:03:20;1.45;;;0.80;;
45887;SDS011;31595;51.418;7.572;2024-03-02T12:05:49;1.58;;;0.88;;
45887;SDS011;31595;51.418;7.572;2024-03-02T12:08:16;1.40;;;0.70;;
45887;SDS011;31595;51.418;7.572;2024-03-02T12:10:43;1.10;;;0.60;;
45887;SDS011;31595;51.418;7.572;2024-03-02T12:13:22;1.48;;;0.80;;
45887;SDS011;31595;51.418;7.572;2024-03-02T12:15:52;1.30;;;0.80;;
45887;SDS011;31595;51.418;7.572;2024-03-02T12:18:19;1.10;;;0.63;;
45887;SDS011;31595;51.418;7.572;2024-03-02T12:20:46;1.67;;;0.80;;
45887;SDS011;31595;51.418;7.572;2024-03-02T12:23:16;5.97;;;1.02;;
45887;SDS011;31595;51.418;7.572;2024-03-02T12:25:43;1.10;;;0.70;;
45887;SDS011;31595;51.418;7.572;2024-03-02T12:28:10;1.70;;;0.73;;
45887;SDS011;31595;51.418;7.572;2024-03-02T12:30:37;1.67;;;0.60;;
45887;SDS011;31595;51.418;7.572;2024-03-02T12:33:04;1.17;;;0.60;;
45887;SDS011;31595;51.418;7.572;2024-03-02T12:35:31;1.45;;;0.88;;
45887;SDS011;31595;51.418;7.572;2024-03-02T12:37:58;1.63;;;0.80;;
45887;SDS011;31595;51.418;7.572;2024-03-02T12:40:26;1.77;;;0.90;;
45887;SDS011;31595;51.418;7.572;2024-03-02T12:42:53;2.08;;;0.90;;
45887;SDS011;31595;51.418;7.572;2024-03-02T12:45:19;1.60;;;1.00;;
45887;SDS011;31595;51.418;7.572;2024-03-02T12:47:49;1.45;;;0.80;;
45887;SDS011;31595;51.418;7.572;2024-03-02T12:50:16;2.00;;;0.90;;
45887;SDS011;31595;51.418;7.572;2024-03-02T12:52:43;2.30;;;0.88;;
45887;SDS011;31595;51.418;7.572;2024-03-02T12:55:10;1.33;;;0.80;;
45887;SDS011;31595;51.418;7.572;2024-03-02T12:57:39;1.52;;;0.90;;
45887;SDS011;31595;51.418;7.572;2024-03-02T13:00:06;1.75;;;0.85;;
45887;SDS011;31595;51.418;7.572;2024-03-02T13:02:34;1.23;;;0.77;;
45887;SDS011;31595;51.418;7.572;2024-03-02T13:05:01;2.47;;;0.77;;
45887;SDS011;31595;51.418;7.572;2024-03-02T13:07:28;3.20;;;1.13;;
45887;SDS011;31595;51.418;7.572;2024-03-02T13:09:55;1.58;;;0.90;;
45887;SDS011;31595;51.418;7.572;2024-03-02T13:12:22;2.08;;;0.90;;
45887;SDS011;31595;51.418;7.572;2024-03-02T13:14:52;1.35;;;0.88;;
45887;SDS011;31595;51.418;7.572;2024-03-02T13:17:19;1.40;;;0.70;;
45887;SDS011;31595;51.418;7.572;2024-03-02T13:19:52;1.52;;;0.90;;
45887;SDS011;31595;51.418;7.572;2024-03-02T13:22:19;1.63;;;0.85;;
45887;SDS011;31595;51.418;7.572;2024-03-02T13:24:46;1.42;;;0.70;;
45887;SDS011;31595;51.418;7.572;2024-03-02T13:27:13;2.22;;;0.52;;
45887;SDS011;31595;51.418;7.572;2024-03-02T13:29:40;1.23;;;0.70;;
45887;SDS011;31595;51.418;7.572;2024-03-02T13:32:08;1.92;;;0.88;;
45887;SDS011;31595;51.418;7.572;2024-03-02T13:34:36;1.33;;;0.70;;
45887;SDS011;31595;51.418;7.572;2024-03-02T13:37:03;1.20;;;0.70;;
45887;SDS011;31595;51.418;7.572;2024-03-02T13:39:31;1.35;;;0.60;;
45887;SDS011;31595;51.418;7.572;2024-03-02T13:41:58;1.60;;;0.60;;
45887;SDS011;31595;51.418;7.572;2024-03-02T13:44:29;2.42;;;0.95;;
45887;SDS011;31595;51.418;7.572;2024-03-02T13:46:56;1.40;;;0.90;;
45887;SDS011;31595;51.418;7.572;2024-03-02T13:49:25;1.75;;;0.82;;
45887;SDS011;31595;51.418;7.572;2024-03-02T13:51:54;1.98;;;0.80;;
45887;SDS011;31595;51.418;7.572;2024-03-02T13:54:22;1.30;;;0.70;;
45887;SDS011;31595;51.418;7.572;2024-03-02T13:56:49;1.90;;;0.60;;
45887;SDS011;31595;51.418;7.572;2024-03-02T13:59:16;1.40;;;0.75;;
45887;SDS011;31595;51.418;7.572;2024-03-02T14:01:43;1.35;;;0.80;;
45887;SDS011;31595;51.418;7.572;2024-03-02T14:04:10;1.67;;;0.80;;
45887;SDS011;31595;51.418;7.572;2024-03-02T14:06:38;1.95;;;0.90;;
45887;SDS011;31595;51.418;7.572;2024-03-02T14:09:05;2.10;;;0.80;;
45887;SDS011;31595;51.418;7.572;2024-03-02T14:11:31;3.10;;;1.00;;
45887;SDS011;31595;51.418;7.572;2024-03-02T14:13:58;1.50;;;0.82;;
45887;SDS011;31595;51.418;7.572;2024-03-02T14:16:25;1.67;;;0.98;;
45887;SDS011;31595;51.418;7.572;2024-03-02T14:18:52;1.35;;;0.90;;
45887;SDS011;31595;51.418;7.572;2024-03-02T14:21:19;2.00;;;1.02;;
45887;SDS011;31595;51.418;7.572;2024-03-02T14:23:47;2.15;;;1.20;;
45887;SDS011;31595;51.418;7.572;2024-03-02T14:26:14;1.67;;;1.00;;
45887;SDS011;31595;51.418;7.572;2024-03-02T14:28:40;2.35;;;1.10;;
45887;SDS011;31595;51.418;7.572;2024-03-02T14:31:07;1.83;;;1.00;;
45887;SDS011;31595;51.418;7.572;2024-03-02T14:33:34;3.08;;;1.30;;
45887;SDS011;31595;51.418;7.572;2024-03-02T14:36:01;2.05;;;1.20;;
45887;SDS011;31595;51.418;7.572;2024-03-02T14:38:28;1.42;;;1.00;;
45887;SDS011;31595;51.418;7.572;2024-03-02T14:40:57;2.55;;;1.20;;
45887;SDS011;31595;51.418;7.572;2024-03-02T14:43:24;3.00;;;1.10;;
45887;SDS011;31595;51.418;7.572;2024-03-02T14:45:50;2.05;;;1.20;;
45887;SDS011;31595;51.418;7.572;2024-03-02T14:48:17;2.88;;;1.30;;
45887;SDS011;31595;51.418;7.572;2024-03-02T14:50:44;1.60;;;1.15;;
45887;SDS011;31595;51.418;7.572;2024-03-02T14:53:11;1.63;;;1.00;;
45887;SDS011;31595;51.418;7.572;2024-03-02T14:55:38;2.72;;;1.10;;